sensor_id;sensor_type;location;lat;lon;timestamp;P1;durP1;ratioP1;P2;durP2;ratioP2
14768;SDS011;7476;49.404;11.152;2022-12-18T00:01:47;31.00;;;17.70;;
14768;SDS011;7476;49.404;11.152;2022-12-18T00:04:16;26.90;;;13.33;;
14768;SDS011;7476;49.404;11.152;2022-12-18T00:06:46;29.63;;;15.90;;
14768;SDS011;7476;49.404;11.152;2022-12-18T00:09:14;31.07;;;15.03;;
14768;SDS011;7476;49.404;11.152;2022-12-18T00:11:40;23.00;;;12.87;;
14768;SDS011;7476;49.404;11.152;2022-12-18T00:14:08;31.23;;;15.27;;
14768;SDS011;7476;49.404;11.152;2022-12-18T00:16:36;25.73;;;14.50;;
14768;SDS011;7476;49.404;11.152;2022-12-18T00:19:05;32.27;;;15.10;;
14768;SDS011;7476;49.404;11.152;2022-12-18T00:21:33;27.37;;;14.67;;
14768;SDS011;7476;49.404;11.152;2022-12-18T00:24:00;27.70;;;13.90;;
14768;SDS011;7476;49.404;11.152;2022-12-18T00:26:27;35.23;;;16.57;;
14768;SDS011;7476;49.404;11.152;2022-12-18T00:28:57;33.67;;;14.77;;
14768;SDS011;7476;49.404;11.152;2022-12-18T00:31:24;20.80;;;12.37;;
14768;SDS011;7476;49.404;11.152;2022-12-18T00:33:53;35.40;;;16.23;;
14768;SDS011;7476;49.404;11.152;2022-12-18T00:36:20;26.57;;;12.73;;
14768;SDS011;7476;49.404;11.152;2022-12-18T00:38:49;20.90;;;12.37;;
14768;SDS011;7476;49.404;11.152;2022-12-18T00:41:16;29.67;;;13.50;;
14768;SDS011;7476;49.404;11.152;2022-12-18T00:44:04;22.43;;;11.17;;
14768;SDS011;7476;49.404;11.152;2022-12-18T00:46:31;23.67;;;11.57;;
14768;SDS011;7476;49.404;11.152;2022-12-18T00:48:58;25.73;;;13.47;;
14768;SDS011;7476;49.404;11.152;2022-12-18T00:51:25;27.97;;;13.50;;
14768;SDS011;7476;49.404;11.152;2022-12-18T00:53:53;22.93;;;13.23;;
14768;SDS011;7476;49.404;11.152;2022-12-18T00:56:20;19.17;;;10.43;;
14768;SDS011;7476;49.404;11.152;2022-12-18T00:58:47;23.77;;;13.97;;
14768;SDS011;7476;49.404;11.152;2022-12-18T01:01:14;25.67;;;10.37;;
14768;SDS011;7476;49.404;11.152;2022-12-18T01:03:41;20.43;;;10.77;;
14768;SDS011;7476;49.404;11.152;2022-12-18T01:06:11;17.73;;;9.37;;
14768;SDS011;7476;49.404;11.152;2022-12-18T01:08:39;17.40;;;9.93;;
14768;SDS011;7476;49.404;11.152;2022-12-18T01:11:08;18.03;;;10.03;;
14768;SDS011;7476;49.404;11.152;2022-12-18T01:13:36;21.07;;;11.30;;
14768;SDS011;7476;49.404;11.152;2022-12-18T01:16:03;18.30;;;10.40;;
14768;SDS011;7476;49.404;11.152;2022-12-18T01:18:31;10.17;;;8.00;;
14768;SDS011;7476;49.404;11.152;2022-12-18T01:20:58;17.23;;;9.40;;
14768;SDS011;7476;49.404;11.152;2022-12-18T01:23:24;23.37;;;9.20;;
14768;SDS011;7476;49.404;11.152;2022-12-18T01:25:51;14.87;;;8.43;;
14768;SDS011;7476;49.404;11.152;2022-12-18T01:28:19;20.27;;;9.80;;
14768;SDS011;7476;49.404;11.152;2022-12-18T01:30:46;19.97;;;10.70;;
14768;SDS011;7476;49.404;11.152;2022-12-18T01:33:12;21.70;;;11.10;;
14768;SDS011;7476;49.404;11.152;2022-12-18T01:35:40;16.17;;;9.97;;
14768;SDS011;7476;49.404;11.152;2022-12-18T01:38:07;15.70;;;8.63;;
14768;SDS011;7476;49.404;11.152;2022-12-18T01:40:34;19.47;;;11.23;;
14768;SDS011;7476;49.404;11.152;2022-12-18T01:43:01;16.47;;;9.73;;
14768;SDS011;7476;49.404;11.152;2022-12-18T01:45:30;22.63;;;12.00;;
14768;SDS011;7476;49.404;11.152;2022-12-18T01:47:58;20.07;;;9.43;;
14768;SDS011;7476;49.404;11.152;2022-12-18T01:50:29;12.33;;;7.67;;
14768;SDS011;7476;49.404;11.152;2022-12-18T01:53:02;17.67;;;10.17;;
14768;SDS011;7476;49.404;11.152;2022-12-18T01:55:34;14.33;;;8.23;;
14768;SDS011;7476;49.404;11.152;2022-12-18T01:58:05;16.47;;;9.03;;
14768;SDS011;7476;49.404;11.152;2022-12-18T02:00:34;15.90;;;8.67;;
14768;SDS011;7476;49.404;11.152;2022-12-18T02:03:00;17.50;;;8.53;;
14768;SDS011;7476;49.404;11.152;2022-12-18T02:05:29;15.27;;;9.47;;
14768;SDS011;7476;49.404;11.152;2022-12-18T02:08:20;16.43;;;10.33;;
14768;SDS011;7476;49.404;11.152;2022-12-18T02:10:53;16.33;;;10.57;;
14768;SDS011;7476;49.404;11.152;2022-12-18T02:13:27;12.03;;;7.60;;
14768;SDS011;7476;49.404;11.152;2022-12-18T02:16:01;17.83;;;8.17;;
14768;SDS011;7476;49.404;11.152;2022-12-18T02:18:35;11.37;;;6.80;;
14768;SDS011;7476;49.404;11.152;2022-12-18T02:21:07;15.50;;;9.00;;
14768;SDS011;7476;49.404;11.152;2022-12-18T02:23:44;19.27;;;8.37;;
14768;SDS011;7476;49.404;11.152;2022-12-18T02:26:19;16.30;;;10.33;;
14768;SDS011;7476;49.404;11.152;2022-12-18T02:28:49;14.97;;;8.53;;
14768;SDS011;7476;49.404;11.152;2022-12-18T02:31:21;14.57;;;8.20;;
14768;SDS011;7476;49.404;11.152;2022-12-18T02:33:51;15.87;;;9.33;;
14768;SDS011;7476;49.404;11.152;2022-12-18T02:36:21;16.17;;;9.63;;
14768;SDS011;7476;49.404;11.152;2022-12-18T02:38:48;17.73;;;10.00;;
14768;SDS011;7476;49.404;11.152;2022-12-18T02:41:18;13.27;;;8.07;;
14768;SDS011;7476;49.404;11.152;2022-12-18T02:43:47;14.40;;;8.50;;
14768;SDS011;7476;49.404;11.152;2022-12-18T02:46:24;16.07;;;10.27;;
14768;SDS011;7476;49.404;11.152;2022-12-18T02:48:54;20.37;;;11.27;;
14768;SDS011;7476;49.404;11.152;2022-12-18T02:51:29;18.57;;;11.50;;
14768;SDS011;7476;49.404;11.152;2022-12-18T02:54:00;18.23;;;10.10;;
14768;SDS011;7476;49.404;11.152;2022-12-18T02:56:35;24.17;;;13.03;;
14768;SDS011;7476;49.404;11.152;2022-12-18T02:59:08;16.97;;;10.93;;
14768;SDS011;7476;49.404;11.152;2022-12-18T03:01:38;20.87;;;11.37;;
14768;SDS011;7476;49.404;11.152;2022-12-18T03:04:14;20.70;;;12.90;;
14768;SDS011;7476;49.404;11.152;2022-12-18T03:06:46;28.13;;;12.53;;
14768;SDS011;7476;49.404;11.152;2022-12-18T03:09:17;28.23;;;13.73;;
14768;SDS011;7476;49.404;11.152;2022-12-18T03:11:50;26.00;;;14.30;;
14768;SDS011;7476;49.404;11.152;2022-12-18T03:14:38;23.40;;;13.30;;
14768;SDS011;7476;49.404;11.152;2022-12-18T03:17:11;27.53;;;13.23;;
14768;SDS011;7476;49.404;11.152;2022-12-18T03:19:42;20.67;;;12.17;;
14768;SDS011;7476;49.404;11.152;2022-12-18T03:22:12;27.90;;;13.07;;
14768;SDS011;7476;49.404;11.152;2022-12-18T03:24:41;26.37;;;13.27;;
14768;SDS011;7476;49.404;11.152;2022-12-18T03:27:10;24.70;;;13.33;;
14768;SDS011;7476;49.404;11.152;2022-12-18T03:29:42;27.10;;;13.67;;
14768;SDS011;7476;49.404;11.152;2022-12-18T03:32:15;25.50;;;13.97;;
14768;SDS011;7476;49.404;11.152;2022-12-18T03:34:45;25.97;;;14.43;;
14768;SDS011;7476;49.404;11.152;2022-12-18T03:37:15;25.20;;;14.53;;
14768;SDS011;7476;49.404;11.152;2022-12-18T03:39:41;22.93;;;13.10;;
14768;SDS011;7476;49.404;11.152;2022-12-18T03:42:10;30.53;;;14.13;;
14768;SDS011;7476;49.404;11.152;2022-12-18T03:44:43;24.00;;;13.27;;
14768;SDS011;7476;49.404;11.152;2022-12-18T03:47:16;26.50;;;13.53;;
14768;SDS011;7476;49.404;11.152;2022-12-18T03:49:50;31.93;;;14.03;;
14768;SDS011;7476;49.404;11.152;2022-12-18T03:52:24;24.90;;;12.97;;
14768;SDS011;7476;49.404;11.152;2022-12-18T03:54:54;28.53;;;14.33;;
14768;SDS011;7476;49.404;11.152;2022-12-18T03:57:24;27.57;;;14.63;;
14768;SDS011;7476;49.404;11.152;2022-12-18T03:59:56;28.60;;;12.83;;
14768;SDS011;7476;49.404;11.152;2022-12-18T04:02:25;29.70;;;13.23;;
14768;SDS011;7476;49.404;11.152;2022-12-18T04:04:53;21.77;;;12.93;;
14768;SDS011;7476;49.404;11.152;2022-12-18T04:07:23;28.37;;;13.47;;
14768;SDS011;7476;49.404;11.152;2022-12-18T04:09:51;23.83;;;13.57;;
14768;SDS011;7476;49.404;11.152;2022-12-18T04:12:25;29.77;;;13.30;;
14768;SDS011;7476;49.404;11.152;2022-12-18T04:14:52;25.13;;;13.63;;
14768;SDS011;7476;49.404;11.152;2022-12-18T04:17:18;27.67;;;14.40;;
14768;SDS011;7476;49.404;11.152;2022-12-18T04:19:45;24.07;;;12.67;;
14768;SDS011;7476;49.404;11.152;2022-12-18T04:22:12;28.10;;;14.43;;
14768;SDS011;7476;49.404;11.152;2022-12-18T04:24:39;30.37;;;15.53;;
14768;SDS011;7476;49.404;11.152;2022-12-18T04:27:05;25.90;;;13.80;;
14768;SDS011;7476;49.404;11.152;2022-12-18T04:29:34;24.33;;;12.97;;
14768;SDS011;7476;49.404;11.152;2022-12-18T04:32:00;24.13;;;13.40;;
14768;SDS011;7476;49.404;11.152;2022-12-18T04:34:27;33.70;;;14.70;;
14768;SDS011;7476;49.404;11.152;2022-12-18T04:36:54;31.10;;;15.20;;
14768;SDS011;7476;49.404;11.152;2022-12-18T04:39:20;25.27;;;13.80;;
14768;SDS011;7476;49.404;11.152;2022-12-18T04:41:47;28.37;;;14.57;;
14768;SDS011;7476;49.404;11.152;2022-12-18T04:44:14;26.03;;;13.13;;
14768;SDS011;7476;49.404;11.152;2022-12-18T04:46:42;21.10;;;12.53;;
14768;SDS011;7476;49.404;11.152;2022-12-18T04:49:08;24.73;;;12.93;;
14768;SDS011;7476;49.404;11.152;2022-12-18T04:51:35;25.00;;;13.23;;
14768;SDS011;7476;49.404;11.152;2022-12-18T04:54:02;30.07;;;14.00;;
14768;SDS011;7476;49.404;11.152;2022-12-18T04:56:29;26.70;;;14.17;;
14768;SDS011;7476;49.404;11.152;2022-12-18T04:58:57;26.53;;;14.27;;
14768;SDS011;7476;49.404;11.152;2022-12-18T05:01:24;29.97;;;14.63;;
14768;SDS011;7476;49.404;11.152;2022-12-18T05:03:52;32.97;;;14.17;;
14768;SDS011;7476;49.404;11.152;2022-12-18T05:06:18;25.97;;;14.30;;
14768;SDS011;7476;49.404;11.152;2022-12-18T05:08:45;28.53;;;13.20;;
14768;SDS011;7476;49.404;11.152;2022-12-18T05:11:13;28.20;;;13.03;;
14768;SDS011;7476;49.404;11.152;2022-12-18T05:13:41;31.83;;;14.87;;
14768;SDS011;7476;49.404;11.152;2022-12-18T05:16:08;33.37;;;13.70;;
14768;SDS011;7476;49.404;11.152;2022-12-18T05:18:35;24.47;;;11.83;;
14768;SDS011;7476;49.404;11.152;2022-12-18T05:21:03;29.43;;;13.90;;
14768;SDS011;7476;49.404;11.152;2022-12-18T05:23:30;28.83;;;14.47;;
14768;SDS011;7476;49.404;11.152;2022-12-18T05:25:57;26.07;;;13.67;;
14768;SDS011;7476;49.404;11.152;2022-12-18T05:28:27;29.37;;;13.50;;
14768;SDS011;7476;49.404;11.152;2022-12-18T05:30:56;27.23;;;13.43;;
14768;SDS011;7476;49.404;11.152;2022-12-18T05:33:24;29.47;;;14.57;;
14768;SDS011;7476;49.404;11.152;2022-12-18T05:35:53;27.07;;;13.07;;
14768;SDS011;7476;49.404;11.152;2022-12-18T05:38:23;34.07;;;13.87;;
14768;SDS011;7476;49.404;11.152;2022-12-18T05:40:51;26.97;;;13.90;;
14768;SDS011;7476;49.404;11.152;2022-12-18T05:43:22;30.57;;;14.00;;
14768;SDS011;7476;49.404;11.152;2022-12-18T05:45:50;27.37;;;14.10;;
14768;SDS011;7476;49.404;11.152;2022-12-18T05:48:17;28.77;;;14.37;;
14768;SDS011;7476;49.404;11.152;2022-12-18T05:50:45;27.20;;;14.00;;
14768;SDS011;7476;49.404;11.152;2022-12-18T05:53:13;30.20;;;13.27;;
14768;SDS011;7476;49.404;11.152;2022-12-18T05:55:43;28.90;;;14.37;;
14768;SDS011;7476;49.404;11.152;2022-12-18T05:58:11;30.70;;;14.53;;
14768;SDS011;7476;49.404;11.152;2022-12-18T06:00:41;24.63;;;12.93;;
14768;SDS011;7476;49.404;11.152;2022-12-18T06:03:09;30.90;;;14.97;;
14768;SDS011;7476;49.404;11.152;2022-12-18T06:05:37;26.53;;;13.60;;
14768;SDS011;7476;49.404;11.152;2022-12-18T06:08:05;30.03;;;14.27;;
14768;SDS011;7476;49.404;11.152;2022-12-18T06:10:32;34.43;;;14.20;;
14768;SDS011;7476;49.404;11.152;2022-12-18T06:13:00;30.20;;;13.97;;
14768;SDS011;7476;49.404;11.152;2022-12-18T06:15:27;31.03;;;14.30;;
14768;SDS011;7476;49.404;11.152;2022-12-18T06:17:54;28.60;;;13.43;;
14768;SDS011;7476;49.404;11.152;2022-12-18T06:20:20;31.70;;;15.57;;
14768;SDS011;7476;49.404;11.152;2022-12-18T06:22:47;35.53;;;15.43;;
14768;SDS011;7476;49.404;11.152;2022-12-18T06:25:14;33.30;;;15.03;;
14768;SDS011;7476;49.404;11.152;2022-12-18T06:27:41;29.17;;;13.80;;
14768;SDS011;7476;49.404;11.152;2022-12-18T06:30:10;31.40;;;14.73;;
14768;SDS011;7476;49.404;11.152;2022-12-18T06:32:37;31.70;;;14.63;;
14768;SDS011;7476;49.404;11.152;2022-12-18T06:35:04;32.07;;;14.70;;
14768;SDS011;7476;49.404;11.152;2022-12-18T06:37:31;28.37;;;14.17;;
14768;SDS011;7476;49.404;11.152;2022-12-18T06:39:58;31.10;;;14.40;;
14768;SDS011;7476;49.404;11.152;2022-12-18T06:42:26;31.27;;;15.37;;
14768;SDS011;7476;49.404;11.152;2022-12-18T06:44:54;35.77;;;15.33;;
14768;SDS011;7476;49.404;11.152;2022-12-18T06:47:22;35.10;;;15.00;;
14768;SDS011;7476;49.404;11.152;2022-12-18T06:49:48;30.27;;;15.13;;
14768;SDS011;7476;49.404;11.152;2022-12-18T06:52:15;32.83;;;14.33;;
14768;SDS011;7476;49.404;11.152;2022-12-18T06:54:42;36.50;;;16.07;;
14768;SDS011;7476;49.404;11.152;2022-12-18T06:57:09;30.77;;;15.03;;
14768;SDS011;7476;49.404;11.152;2022-12-18T06:59:35;34.27;;;15.67;;
14768;SDS011;7476;49.404;11.152;2022-12-18T07:02:02;29.97;;;15.13;;
14768;SDS011;7476;49.404;11.152;2022-12-18T07:04:30;34.57;;;15.60;;
14768;SDS011;7476;49.404;11.152;2022-12-18T07:06:58;34.97;;;14.90;;
14768;SDS011;7476;49.404;11.152;2022-12-18T07:09:24;39.03;;;15.60;;
14768;SDS011;7476;49.404;11.152;2022-12-18T07:11:51;34.80;;;14.97;;
14768;SDS011;7476;49.404;11.152;2022-12-18T07:14:18;41.63;;;16.20;;
14768;SDS011;7476;49.404;11.152;2022-12-18T07:16:45;37.97;;;15.00;;
14768;SDS011;7476;49.404;11.152;2022-12-18T07:19:12;38.67;;;16.17;;
14768;SDS011;7476;49.404;11.152;2022-12-18T07:21:40;37.80;;;15.73;;
14768;SDS011;7476;49.404;11.152;2022-12-18T07:24:07;40.57;;;16.13;;
14768;SDS011;7476;49.404;11.152;2022-12-18T07:26:34;39.87;;;17.20;;
14768;SDS011;7476;49.404;11.152;2022-12-18T07:29:00;37.23;;;15.60;;
14768;SDS011;7476;49.404;11.152;2022-12-18T07:31:27;42.23;;;17.27;;
14768;SDS011;7476;49.404;11.152;2022-12-18T07:33:54;38.57;;;16.43;;
14768;SDS011;7476;49.404;11.152;2022-12-18T07:36:20;38.60;;;16.90;;
14768;SDS011;7476;49.404;11.152;2022-12-18T07:38:48;40.63;;;16.70;;
14768;SDS011;7476;49.404;11.152;2022-12-18T07:41:16;36.77;;;15.27;;
14768;SDS011;7476;49.404;11.152;2022-12-18T07:43:44;36.63;;;16.53;;
14768;SDS011;7476;49.404;11.152;2022-12-18T07:46:12;36.47;;;16.47;;
14768;SDS011;7476;49.404;11.152;2022-12-18T07:48:39;35.13;;;15.97;;
14768;SDS011;7476;49.404;11.152;2022-12-18T07:51:07;38.87;;;17.63;;
14768;SDS011;7476;49.404;11.152;2022-12-18T07:53:34;34.57;;;15.67;;
14768;SDS011;7476;49.404;11.152;2022-12-18T07:56:03;36.83;;;16.57;;
14768;SDS011;7476;49.404;11.152;2022-12-18T07:58:31;32.87;;;14.87;;
14768;SDS011;7476;49.404;11.152;2022-12-18T08:01:03;35.10;;;15.87;;
14768;SDS011;7476;49.404;11.152;2022-12-18T08:03:30;28.33;;;13.43;;
14768;SDS011;7476;49.404;11.152;2022-12-18T08:05:58;32.70;;;14.43;;
14768;SDS011;7476;49.404;11.152;2022-12-18T08:08:26;37.70;;;15.30;;
14768;SDS011;7476;49.404;11.152;2022-12-18T08:10:52;30.30;;;14.67;;
14768;SDS011;7476;49.404;11.152;2022-12-18T08:13:20;31.30;;;14.73;;
14768;SDS011;7476;49.404;11.152;2022-12-18T08:15:55;32.00;;;14.70;;
14768;SDS011;7476;49.404;11.152;2022-12-18T08:18:23;33.57;;;15.10;;
14768;SDS011;7476;49.404;11.152;2022-12-18T08:20:49;30.17;;;14.60;;
14768;SDS011;7476;49.404;11.152;2022-12-18T08:23:16;36.17;;;14.10;;
14768;SDS011;7476;49.404;11.152;2022-12-18T08:25:43;31.57;;;14.33;;
14768;SDS011;7476;49.404;11.152;2022-12-18T08:28:10;30.80;;;14.93;;
14768;SDS011;7476;49.404;11.152;2022-12-18T08:30:38;38.53;;;15.80;;
14768;SDS011;7476;49.404;11.152;2022-12-18T08:33:04;29.53;;;13.97;;
14768;SDS011;7476;49.404;11.152;2022-12-18T08:35:34;29.27;;;13.17;;
14768;SDS011;7476;49.404;11.152;2022-12-18T08:38:01;32.33;;;14.77;;
14768;SDS011;7476;49.404;11.152;2022-12-18T08:40:28;31.70;;;14.60;;
14768;SDS011;7476;49.404;11.152;2022-12-18T08:42:55;30.13;;;14.20;;
14768;SDS011;7476;49.404;11.152;2022-12-18T08:45:48;27.93;;;14.77;;
14768;SDS011;7476;49.404;11.152;2022-12-18T08:48:15;32.43;;;16.30;;
14768;SDS011;7476;49.404;11.152;2022-12-18T08:50:42;33.90;;;15.37;;
14768;SDS011;7476;49.404;11.152;2022-12-18T08:53:08;32.37;;;14.57;;
14768;SDS011;7476;49.404;11.152;2022-12-18T08:55:35;32.60;;;14.90;;
14768;SDS011;7476;49.404;11.152;2022-12-18T08:58:02;28.83;;;14.90;;
14768;SDS011;7476;49.404;11.152;2022-12-18T09:00:28;33.30;;;16.00;;
14768;SDS011;7476;49.404;11.152;2022-12-18T09:02:56;33.27;;;15.40;;
14768;SDS011;7476;49.404;11.152;2022-12-18T09:05:23;31.13;;;15.33;;
14768;SDS011;7476;49.404;11.152;2022-12-18T09:07:50;31.43;;;15.93;;
14768;SDS011;7476;49.404;11.152;2022-12-18T09:10:17;28.27;;;14.73;;
14768;SDS011;7476;49.404;11.152;2022-12-18T09:12:43;27.53;;;14.07;;
14768;SDS011;7476;49.404;11.152;2022-12-18T09:15:10;34.47;;;15.07;;
14768;SDS011;7476;49.404;11.152;2022-12-18T09:17:37;28.57;;;14.60;;
14768;SDS011;7476;49.404;11.152;2022-12-18T09:20:06;31.43;;;15.13;;
14768;SDS011;7476;49.404;11.152;2022-12-18T09:22:33;25.60;;;13.83;;
14768;SDS011;7476;49.404;11.152;2022-12-18T09:25:00;25.87;;;12.93;;
14768;SDS011;7476;49.404;11.152;2022-12-18T09:27:27;24.87;;;12.13;;
14768;SDS011;7476;49.404;11.152;2022-12-18T09:29:53;29.33;;;13.50;;
14768;SDS011;7476;49.404;11.152;2022-12-18T09:32:20;25.73;;;13.03;;
14768;SDS011;7476;49.404;11.152;2022-12-18T09:34:47;28.97;;;13.20;;
14768;SDS011;7476;49.404;11.152;2022-12-18T09:37:15;25.23;;;13.27;;
14768;SDS011;7476;49.404;11.152;2022-12-18T09:39:42;26.83;;;13.30;;
14768;SDS011;7476;49.404;11.152;2022-12-18T09:42:09;27.43;;;13.17;;
14768;SDS011;7476;49.404;11.152;2022-12-18T09:44:43;30.50;;;14.67;;
14768;SDS011;7476;49.404;11.152;2022-12-18T09:47:14;33.30;;;15.63;;
14768;SDS011;7476;49.404;11.152;2022-12-18T09:49:45;29.97;;;16.77;;
14768;SDS011;7476;49.404;11.152;2022-12-18T09:52:16;30.63;;;15.00;;
14768;SDS011;7476;49.404;11.152;2022-12-18T09:54:48;24.80;;;13.60;;
14768;SDS011;7476;49.404;11.152;2022-12-18T09:57:18;27.03;;;13.63;;
14768;SDS011;7476;49.404;11.152;2022-12-18T09:59:48;28.47;;;13.57;;
14768;SDS011;7476;49.404;11.152;2022-12-18T10:02:19;23.97;;;13.43;;
14768;SDS011;7476;49.404;11.152;2022-12-18T10:04:50;27.50;;;14.00;;
14768;SDS011;7476;49.404;11.152;2022-12-18T10:07:29;24.63;;;12.40;;
14768;SDS011;7476;49.404;11.152;2022-12-18T10:10:07;27.77;;;13.00;;
14768;SDS011;7476;49.404;11.152;2022-12-18T10:12:43;23.90;;;12.13;;
14768;SDS011;7476;49.404;11.152;2022-12-18T10:15:16;25.70;;;14.03;;
14768;SDS011;7476;49.404;11.152;2022-12-18T10:17:51;25.70;;;12.17;;
14768;SDS011;7476;49.404;11.152;2022-12-18T10:20:24;28.13;;;14.57;;
14768;SDS011;7476;49.404;11.152;2022-12-18T10:22:57;30.50;;;13.90;;
14768;SDS011;7476;49.404;11.152;2022-12-18T10:25:31;25.57;;;13.50;;
14768;SDS011;7476;49.404;11.152;2022-12-18T10:28:07;25.83;;;14.37;;
14768;SDS011;7476;49.404;11.152;2022-12-18T10:30:38;25.90;;;13.27;;
14768;SDS011;7476;49.404;11.152;2022-12-18T10:33:08;25.63;;;14.23;;
14768;SDS011;7476;49.404;11.152;2022-12-18T10:35:37;26.27;;;13.03;;
14768;SDS011;7476;49.404;11.152;2022-12-18T10:38:20;25.90;;;14.00;;
14768;SDS011;7476;49.404;11.152;2022-12-18T10:40:50;24.00;;;12.57;;
14768;SDS011;7476;49.404;11.152;2022-12-18T10:43:22;23.40;;;13.60;;
14768;SDS011;7476;49.404;11.152;2022-12-18T10:45:58;26.57;;;13.00;;
14768;SDS011;7476;49.404;11.152;2022-12-18T10:48:39;26.67;;;12.67;;
14768;SDS011;7476;49.404;11.152;2022-12-18T10:51:19;23.80;;;12.53;;
14768;SDS011;7476;49.404;11.152;2022-12-18T10:53:52;21.77;;;11.80;;
14768;SDS011;7476;49.404;11.152;2022-12-18T10:56:21;21.30;;;12.23;;
14768;SDS011;7476;49.404;11.152;2022-12-18T10:58:55;23.57;;;11.97;;
14768;SDS011;7476;49.404;11.152;2022-12-18T11:01:23;21.33;;;11.07;;
14768;SDS011;7476;49.404;11.152;2022-12-18T11:03:58;19.73;;;11.13;;
14768;SDS011;7476;49.404;11.152;2022-12-18T11:06:26;18.27;;;10.33;;
14768;SDS011;7476;49.404;11.152;2022-12-18T11:08:58;20.73;;;10.27;;
14768;SDS011;7476;49.404;11.152;2022-12-18T11:11:26;24.80;;;12.37;;
14768;SDS011;7476;49.404;11.152;2022-12-18T11:13:58;20.70;;;11.10;;
14768;SDS011;7476;49.404;11.152;2022-12-18T11:16:28;20.37;;;11.27;;
14768;SDS011;7476;49.404;11.152;2022-12-18T11:19:13;23.97;;;11.80;;
14768;SDS011;7476;49.404;11.152;2022-12-18T11:21:47;24.40;;;11.13;;
14768;SDS011;7476;49.404;11.152;2022-12-18T11:24:18;24.47;;;12.00;;
14768;SDS011;7476;49.404;11.152;2022-12-18T11:26:51;24.93;;;11.63;;
14768;SDS011;7476;49.404;11.152;2022-12-18T11:29:20;22.30;;;11.30;;
14768;SDS011;7476;49.404;11.152;2022-12-18T11:31:54;23.67;;;12.00;;
14768;SDS011;7476;49.404;11.152;2022-12-18T11:34:48;25.70;;;12.57;;
14768;SDS011;7476;49.404;11.152;2022-12-18T11:37:17;20.73;;;11.50;;
14768;SDS011;7476;49.404;11.152;2022-12-18T11:39:46;24.67;;;11.57;;
14768;SDS011;7476;49.404;11.152;2022-12-18T11:42:20;22.47;;;11.90;;
14768;SDS011;7476;49.404;11.152;2022-12-18T11:44:50;23.70;;;12.70;;
14768;SDS011;7476;49.404;11.152;2022-12-18T11:47:23;25.90;;;12.87;;
14768;SDS011;7476;49.404;11.152;2022-12-18T11:49:55;19.73;;;11.73;;
14768;SDS011;7476;49.404;11.152;2022-12-18T11:52:25;23.17;;;12.67;;
14768;SDS011;7476;49.404;11.152;2022-12-18T11:55:00;21.87;;;12.70;;
14768;SDS011;7476;49.404;11.152;2022-12-18T11:57:34;22.43;;;11.77;;
14768;SDS011;7476;49.404;11.152;2022-12-18T12:00:10;19.27;;;10.17;;
14768;SDS011;7476;49.404;11.152;2022-12-18T12:02:42;20.33;;;11.40;;
14768;SDS011;7476;49.404;11.152;2022-12-18T12:05:28;19.73;;;11.30;;
14768;SDS011;7476;49.404;11.152;2022-12-18T12:08:06;20.47;;;10.53;;
14768;SDS011;7476;49.404;11.152;2022-12-18T12:10:45;21.63;;;11.47;;
14768;SDS011;7476;49.404;11.152;2022-12-18T12:13:22;20.43;;;11.73;;
14768;SDS011;7476;49.404;11.152;2022-12-18T12:15:59;20.03;;;11.83;;
14768;SDS011;7476;49.404;11.152;2022-12-18T12:18:37;20.80;;;11.63;;
14768;SDS011;7476;49.404;11.152;2022-12-18T12:21:20;21.30;;;12.13;;
14768;SDS011;7476;49.404;11.152;2022-12-18T12:23:53;20.77;;;11.20;;
14768;SDS011;7476;49.404;11.152;2022-12-18T12:26:27;20.87;;;11.17;;
14768;SDS011;7476;49.404;11.152;2022-12-18T12:29:00;22.40;;;11.20;;
14768;SDS011;7476;49.404;11.152;2022-12-18T12:31:39;24.97;;;14.13;;
14768;SDS011;7476;49.404;11.152;2022-12-18T12:34:18;20.83;;;11.63;;
14768;SDS011;7476;49.404;11.152;2022-12-18T12:36:51;21.00;;;11.17;;
14768;SDS011;7476;49.404;11.152;2022-12-18T12:39:30;21.77;;;11.63;;
14768;SDS011;7476;49.404;11.152;2022-12-18T12:42:02;19.73;;;10.50;;
14768;SDS011;7476;49.404;11.152;2022-12-18T12:44:50;22.43;;;12.00;;
14768;SDS011;7476;49.404;11.152;2022-12-18T12:47:20;23.37;;;12.00;;
14768;SDS011;7476;49.404;11.152;2022-12-18T12:49:51;19.93;;;11.07;;
14768;SDS011;7476;49.404;11.152;2022-12-18T12:52:21;22.23;;;11.87;;
14768;SDS011;7476;49.404;11.152;2022-12-18T12:54:56;20.53;;;12.63;;
14768;SDS011;7476;49.404;11.152;2022-12-18T12:57:27;22.57;;;11.73;;
14768;SDS011;7476;49.404;11.152;2022-12-18T13:00:00;22.60;;;11.90;;
14768;SDS011;7476;49.404;11.152;2022-12-18T13:02:33;21.77;;;11.40;;
14768;SDS011;7476;49.404;11.152;2022-12-18T13:05:04;21.37;;;11.47;;
14768;SDS011;7476;49.404;11.152;2022-12-18T13:07:39;20.03;;;11.03;;
14768;SDS011;7476;49.404;11.152;2022-12-18T13:13:00;20.70;;;12.40;;
14768;SDS011;7476;49.404;11.152;2022-12-18T13:15:30;21.43;;;11.03;;
14768;SDS011;7476;49.404;11.152;2022-12-18T13:18:04;21.63;;;11.73;;
14768;SDS011;7476;49.404;11.152;2022-12-18T13:20:38;22.03;;;11.57;;
14768;SDS011;7476;49.404;11.152;2022-12-18T13:23:23;22.07;;;11.10;;
14768;SDS011;7476;49.404;11.152;2022-12-18T13:25:56;23.20;;;12.47;;
14768;SDS011;7476;49.404;11.152;2022-12-18T13:28:49;18.33;;;11.23;;
14768;SDS011;7476;49.404;11.152;2022-12-18T13:34:32;19.33;;;11.93;;
14768;SDS011;7476;49.404;11.152;2022-12-18T13:43:15;19.87;;;11.27;;
14768;SDS011;7476;49.404;11.152;2022-12-18T13:45:58;20.00;;;10.67;;
14768;SDS011;7476;49.404;11.152;2022-12-18T13:48:27;19.20;;;11.30;;
14768;SDS011;7476;49.404;11.152;2022-12-18T13:50:59;22.57;;;11.17;;
14768;SDS011;7476;49.404;11.152;2022-12-18T13:53:29;20.90;;;10.40;;
14768;SDS011;7476;49.404;11.152;2022-12-18T13:55:59;21.60;;;11.10;;
14768;SDS011;7476;49.404;11.152;2022-12-18T13:58:27;18.57;;;10.60;;
14768;SDS011;7476;49.404;11.152;2022-12-18T14:00:55;20.80;;;10.50;;
14768;SDS011;7476;49.404;11.152;2022-12-18T14:03:25;17.23;;;9.60;;
14768;SDS011;7476;49.404;11.152;2022-12-18T14:05:55;19.10;;;10.67;;
14768;SDS011;7476;49.404;11.152;2022-12-18T14:08:27;20.80;;;10.70;;
14768;SDS011;7476;49.404;11.152;2022-12-18T14:10:59;19.60;;;10.77;;
14768;SDS011;7476;49.404;11.152;2022-12-18T14:13:30;22.37;;;11.50;;
14768;SDS011;7476;49.404;11.152;2022-12-18T14:16:01;21.20;;;11.13;;
14768;SDS011;7476;49.404;11.152;2022-12-18T14:18:31;22.67;;;11.37;;
14768;SDS011;7476;49.404;11.152;2022-12-18T14:21:04;17.97;;;10.43;;
14768;SDS011;7476;49.404;11.152;2022-12-18T14:23:32;20.30;;;10.53;;
14768;SDS011;7476;49.404;11.152;2022-12-18T14:26:01;19.27;;;10.53;;
14768;SDS011;7476;49.404;11.152;2022-12-18T14:28:29;20.93;;;11.50;;
14768;SDS011;7476;49.404;11.152;2022-12-18T14:30:56;19.33;;;10.57;;
14768;SDS011;7476;49.404;11.152;2022-12-18T14:33:25;20.30;;;11.17;;
14768;SDS011;7476;49.404;11.152;2022-12-18T14:35:54;19.80;;;11.20;;
14768;SDS011;7476;49.404;11.152;2022-12-18T14:38:24;22.73;;;10.63;;
14768;SDS011;7476;49.404;11.152;2022-12-18T14:40:56;19.07;;;10.97;;
14768;SDS011;7476;49.404;11.152;2022-12-18T14:43:24;20.97;;;11.20;;
14768;SDS011;7476;49.404;11.152;2022-12-18T14:45:51;19.60;;;11.07;;
14768;SDS011;7476;49.404;11.152;2022-12-18T14:48:19;25.20;;;12.53;;
14768;SDS011;7476;49.404;11.152;2022-12-18T14:50:55;20.20;;;11.30;;
14768;SDS011;7476;49.404;11.152;2022-12-18T14:53:28;25.43;;;12.00;;